Marianne — VRFM5 — position and weather

sailwx.info

Track history (hours):
 
Tides and Currents Weather Stations Pressure Air Temp Water Temp Dewpoint Dewpoint Depression Visibility Wind Speed Wind Dir Waves Ship Positions

Marianne

Last reported at 2016-Feb-04 15:31 UTC. Time now 2016-Feb-07 10:39 UTC.
Position N 58°38' E 004°35'.

Length 97 m; draft 5.5 m.

Type: Ship (hazmat cat B). MMSI: 477560836.

Date/timePositionNaut miles runAvg speedWind from/ knotsBaromVisibWave heightAir tempDewpointWater temp
2016-Feb-04 15:31N 58°38' E 004°35'1110.6
2016-Feb-04 14:28N 58°28' E 004°45'251 9.6
2016-Feb-03 12:15N 54°18' E 005°12'1010.8
2016-Feb-03 11:17N 54°07' E 005°09'910.9
2016-Feb-03 10:30N 53°59' E 005°06'5611.3
2016-Feb-03 05:33N 53°08' E 004°28'1110.8
2016-Feb-03 04:33N 52°58' E 004°21'1110.9
2016-Feb-03 03:33N 52°48' E 004°12'1311.5
2016-Feb-03 02:24N 52°38' E 003°58'5711.6
2016-Feb-02 21:28N 51°47' E 003°17'7 7.1
2016-Feb-02 20:32N 51°40' E 003°20'1111.2
2016-Feb-02 19:34N 51°30' E 003°27'9 9.1
2016-Feb-02 18:33N 51°26' E 003°40'7 6.3
2016-Feb-02 17:31N 51°21' E 003°46'0 0.0
2016-Feb-02 16:31N 51°21' E 003°46'0 0.0
2016-Feb-02 15:31N 51°21' E 003°46'0 0.0
2016-Feb-02 14:31N 51°21' E 003°46'0 0.0
2016-Feb-02 13:31N 51°21' E 003°46'0 0.0
2016-Feb-02 12:31N 51°21' E 003°46'0 0.0
2016-Feb-02 11:31N 51°21' E 003°46'0 0.0
2016-Feb-02 10:31N 51°21' E 003°46'0 0.0
2016-Feb-02 09:31N 51°21' E 003°46'0 0.0
2016-Feb-02 08:31N 51°21' E 003°46'0 0.0
2016-Feb-02 07:31N 51°21' E 003°46'0 0.0
2016-Feb-02 06:31N 51°21' E 003°46'0 0.0
2016-Feb-02 05:31N 51°21' E 003°46'0 0.0
2016-Feb-02 04:31N 51°21' E 003°46'0 0.0
2016-Feb-02 03:31N 51°21' E 003°46'0 0.0
2016-Feb-02 02:31N 51°21' E 003°46'0 0.0
2016-Feb-02 01:31N 51°21' E 003°46'0 0.0
2016-Feb-02 00:31N 51°21' E 003°46'0 0.0
2016-Feb-01 23:28N 51°21' E 003°46'0 0.0
2016-Feb-01 22:31N 51°21' E 003°46'0 0.0
2016-Feb-01 21:31N 51°21' E 003°46'0 0.0
2016-Feb-01 20:28N 51°21' E 003°46'0 0.0
2016-Feb-01 19:31N 51°21' E 003°46'0 0.0
2016-Feb-01 18:31N 51°21' E 003°46'0 0.0
2016-Feb-01 17:31N 51°21' E 003°46'0 0.0
2016-Feb-01 16:31N 51°21' E 003°46'0 0.0
2016-Feb-01 15:31N 51°21' E 003°46'0 0.0
2016-Feb-01 14:31N 51°21' E 003°46'0 0.0
2016-Feb-01 13:31N 51°21' E 003°46'0 0.0
2016-Feb-01 12:28N 51°21' E 003°46'0 0.0
2016-Feb-01 11:31N 51°21' E 003°46'0 0.0
2016-Feb-01 10:31N 51°21' E 003°46'0 0.0
2016-Feb-01 09:31N 51°21' E 003°46'0 0.0
2016-Feb-01 08:31N 51°21' E 003°46'3 3.0
2016-Feb-01 07:33N 51°23' E 003°43'6 5.9
2016-Feb-01 06:34N 51°25' E 003°34'1211.7
2016-Feb-01 05:33N 51°24' E 003°16'1413.6
2016-Feb-01 04:33N 51°22' E 002°54'1110.6
2016-Feb-01 03:33N 51°22' E 002°37'3 2.8
2016-Feb-01 02:26N 51°20' E 002°33'0 0.0
2016-Feb-01 01:32N 51°20' E 002°33'0 0.0
2016-Feb-01 00:32N 51°20' E 002°33'0 0.0
2016-Jan-31 23:29N 51°20' E 002°33'0 0.0
2016-Jan-31 22:32N 51°20' E 002°33'0 0.0
2016-Jan-31 21:32N 51°20' E 002°33'0 0.0
2016-Jan-31 20:32N 51°20' E 002°33'0 0.0
2016-Jan-31 19:26N 51°20' E 002°33'0 0.0
2016-Jan-31 18:23N 51°20' E 002°33'0 0.0
2016-Jan-31 17:32N 51°20' E 002°33'0 0.0
2016-Jan-31 16:32N 51°20' E 002°33'0 0.0
2016-Jan-31 15:32N 51°20' E 002°33'0 0.0
2016-Jan-31 14:32N 51°20' E 002°33'0 0.1
2016-Jan-31 13:32N 51°20' E 002°32'0 0.0
2016-Jan-31 12:20N 51°20' E 002°32'0 0.0
2016-Jan-31 11:26N 51°20' E 002°32'0 0.1
2016-Jan-31 10:32N 51°20' E 002°32'0 0.1
2016-Jan-31 09:26N 51°20' E 002°32'0 0.0
2016-Jan-31 08:23N 51°20' E 002°33'0 0.0
2016-Jan-31 07:32N 51°20' E 002°33'0 0.0
2016-Jan-31 06:32N 51°20' E 002°33'0 0.0
2016-Jan-31 05:32N 51°20' E 002°33'0 0.0
2016-Jan-31 04:26N 51°20' E 002°33'0 0.0
2016-Jan-31 03:20N 51°20' E 002°33'0 0.0
2016-Jan-31 02:26N 51°20' E 002°33'0 0.1
2016-Jan-31 01:26N 51°20' E 002°32'0 0.1
2016-Jan-31 00:32N 51°20' E 002°32'0 0.1
2016-Jan-30 23:20N 51°20' E 002°32'0 0.1
2016-Jan-30 22:23N 51°20' E 002°33'0 0.1
2016-Jan-30 21:29N 51°20' E 002°33'0 0.1
2016-Jan-30 20:30N 51°20' E 002°32'8 8.4
2016-Jan-30 19:33N 51°19' E 002°20'1514.7
2016-Jan-30 18:33N 51°12' E 001°59'1515.1
2016-Jan-30 17:33N 51°03' E 001°40'  
2016-Jan-28 05:33N 41°60' W 009°56'1413.7
2016-Jan-28 04:33N 41°46' W 009°56'1712.9
2016-Jan-28 03:12N 41°29' W 009°55'913.1
2016-Jan-28 02:30N 41°20' W 009°56'1212.9
2016-Jan-28 01:33N 41°07' W 009°56'1312.5
2016-Jan-28 00:33N 40°55' W 009°57'1414.3
2016-Jan-27 23:33N 40°40' W 009°56'1413.4
2016-Jan-27 22:30N 40°26' W 009°56'2613.3
2016-Jan-27 20:33N 40°01' W 009°56'1413.1
2016-Jan-27 19:30N 39°47' W 009°56'1313.2
2016-Jan-27 18:33N 39°34' W 009°56'1414.1
2016-Jan-27 17:33N 39°20' W 009°56'1312.8
2016-Jan-27 16:33N 39°07' W 009°56'1414.0
2016-Jan-27 15:33N 38°53' W 009°56'1413.8
2016-Jan-27 14:33N 38°40' W 009°55'1212.3
2016-Jan-27 13:33N 38°30' W 009°46'1313.0
2016-Jan-27 12:33N 38°22' W 009°32'1313.1
2016-Jan-27 11:33N 38°14' W 009°19'1312.9
2016-Jan-27 10:33N 38°06' W 009°06'1313.1
2016-Jan-27 09:33N 37°56' W 008°55'1 1.4
2016-Jan-27 08:31N 37°57' W 008°53'0 0.0
2016-Jan-27 07:31N 37°57' W 008°53'0 0.0
2016-Jan-27 06:31N 37°57' W 008°53'0 0.0
2016-Jan-27 05:31N 37°57' W 008°53'0 0.0
2016-Jan-27 04:31N 37°57' W 008°53'0 0.0
2016-Jan-27 03:31N 37°57' W 008°53'0 0.0
2016-Jan-27 02:31N 37°57' W 008°53'0 0.0
2016-Jan-27 01:31N 37°57' W 008°53'0 0.0
2016-Jan-27 00:31N 37°57' W 008°53'0 0.0
2016-Jan-26 23:31N 37°57' W 008°53'0 0.0
2016-Jan-26 22:31N 37°57' W 008°53'0 0.0
2016-Jan-26 21:31N 37°57' W 008°53'0 0.0
2016-Jan-26 20:31N 37°57' W 008°53'0 0.0
2016-Jan-26 19:31N 37°57' W 008°53'0 0.0
2016-Jan-26 18:31N 37°57' W 008°53'0 0.0
2016-Jan-26 17:31N 37°57' W 008°53'0 0.0
2016-Jan-26 16:31N 37°57' W 008°53'0 0.0
2016-Jan-26 15:31N 37°57' W 008°53'0 0.0
2016-Jan-26 14:31N 37°57' W 008°53'0 0.0
2016-Jan-26 13:31N 37°57' W 008°53'0 0.0
2016-Jan-26 12:31N 37°57' W 008°53'0 0.0
2016-Jan-26 11:31N 37°57' W 008°53'0 0.0
2016-Jan-26 10:33N 37°57' W 008°53'2 2.2
2016-Jan-26 09:33N 37°55' W 008°52'0 0.0
2016-Jan-26 08:33N 37°55' W 008°52'0 0.0
2016-Jan-26 07:33N 37°55' W 008°52'0 0.0
2016-Jan-26 06:33N 37°55' W 008°52'0 0.0
2016-Jan-26 05:33N 37°55' W 008°52'0 0.0
2016-Jan-26 04:33N 37°55' W 008°52'0 0.4
2016-Jan-26 03:33N 37°55' W 008°52'1111.2
2016-Jan-26 02:33N 38°03' W 009°02'1414.1
2016-Jan-26 01:33N 38°09' W 009°18'1414.1
2016-Jan-26 00:33N 38°16' W 009°34'1514.7
2016-Jan-25 23:32N 38°22' W 009°52'1414.5
2016-Jan-25 22:32N 38°29' W 010°08'1413.2
2016-Jan-25 21:29N 38°43' W 010°12'1313.1
2016-Jan-25 20:29N 38°56' W 010°12'1313.8
2016-Jan-25 19:32N 39°08' W 010°04'1414.1
2016-Jan-25 18:32N 39°20' W 009°57'1413.9
2016-Jan-25 17:32N 39°33' W 009°49'1413.5
2016-Jan-25 16:32N 39°44' W 009°40'1211.8
2016-Jan-25 15:32N 39°54' W 009°30'  
Track history (hours):
 
Tides and Currents Weather Stations Pressure Air Temp Water Temp Dewpoint Dewpoint Depression Visibility Wind Speed Wind Dir Waves Ship Positions

Marianne

Last reported at 2016-Feb-04 15:31 UTC. Time now 2016-Feb-07 10:39 UTC.
Position N 58°38' E 004°35'.

Length 97 m; draft 5.5 m.

Type: Ship (hazmat cat B). MMSI: 477560836.

Date/timePositionNaut miles runAvg speedWind from/ knotsBaromVisibWave heightAir tempDewpointWater temp
2016-Feb-04 15:31N 58°38' E 004°35'1110.6
2016-Feb-04 14:28N 58°28' E 004°45'251 9.6
2016-Feb-03 12:15N 54°18' E 005°12'1010.8
2016-Feb-03 11:17N 54°07' E 005°09'910.9
2016-Feb-03 10:30N 53°59' E 005°06'5611.3
2016-Feb-03 05:33N 53°08' E 004°28'1110.8
2016-Feb-03 04:33N 52°58' E 004°21'1110.9
2016-Feb-03 03:33N 52°48' E 004°12'1311.5
2016-Feb-03 02:24N 52°38' E 003°58'5711.6
2016-Feb-02 21:28N 51°47' E 003°17'7 7.1
2016-Feb-02 20:32N 51°40' E 003°20'1111.2
2016-Feb-02 19:34N 51°30' E 003°27'9 9.1
2016-Feb-02 18:33N 51°26' E 003°40'7 6.3
2016-Feb-02 17:31N 51°21' E 003°46'0 0.0
2016-Feb-02 16:31N 51°21' E 003°46'0 0.0
2016-Feb-02 15:31N 51°21' E 003°46'0 0.0
2016-Feb-02 14:31N 51°21' E 003°46'0 0.0
2016-Feb-02 13:31N 51°21' E 003°46'0 0.0
2016-Feb-02 12:31N 51°21' E 003°46'0 0.0
2016-Feb-02 11:31N 51°21' E 003°46'0 0.0
2016-Feb-02 10:31N 51°21' E 003°46'0 0.0
2016-Feb-02 09:31N 51°21' E 003°46'0 0.0
2016-Feb-02 08:31N 51°21' E 003°46'0 0.0
2016-Feb-02 07:31N 51°21' E 003°46'0 0.0
2016-Feb-02 06:31N 51°21' E 003°46'0 0.0
2016-Feb-02 05:31N 51°21' E 003°46'0 0.0
2016-Feb-02 04:31N 51°21' E 003°46'0 0.0
2016-Feb-02 03:31N 51°21' E 003°46'0 0.0
2016-Feb-02 02:31N 51°21' E 003°46'0 0.0
2016-Feb-02 01:31N 51°21' E 003°46'0 0.0
2016-Feb-02 00:31N 51°21' E 003°46'0 0.0
2016-Feb-01 23:28N 51°21' E 003°46'0 0.0
2016-Feb-01 22:31N 51°21' E 003°46'0 0.0
2016-Feb-01 21:31N 51°21' E 003°46'0 0.0
2016-Feb-01 20:28N 51°21' E 003°46'0 0.0
2016-Feb-01 19:31N 51°21' E 003°46'0 0.0
2016-Feb-01 18:31N 51°21' E 003°46'0 0.0
2016-Feb-01 17:31N 51°21' E 003°46'0 0.0
2016-Feb-01 16:31N 51°21' E 003°46'0 0.0
2016-Feb-01 15:31N 51°21' E 003°46'0 0.0
2016-Feb-01 14:31N 51°21' E 003°46'0 0.0
2016-Feb-01 13:31N 51°21' E 003°46'0 0.0
2016-Feb-01 12:28N 51°21' E 003°46'0 0.0
2016-Feb-01 11:31N 51°21' E 003°46'0 0.0
2016-Feb-01 10:31N 51°21' E 003°46'0 0.0
2016-Feb-01 09:31N 51°21' E 003°46'0 0.0
2016-Feb-01 08:31N 51°21' E 003°46'3 3.0
2016-Feb-01 07:33N 51°23' E 003°43'6 5.9
2016-Feb-01 06:34N 51°25' E 003°34'1211.7
2016-Feb-01 05:33N 51°24' E 003°16'1413.6
2016-Feb-01 04:33N 51°22' E 002°54'1110.6
2016-Feb-01 03:33N 51°22' E 002°37'3 2.8
2016-Feb-01 02:26N 51°20' E 002°33'0 0.0
2016-Feb-01 01:32N 51°20' E 002°33'0 0.0
2016-Feb-01 00:32N 51°20' E 002°33'0 0.0
2016-Jan-31 23:29N 51°20' E 002°33'0 0.0
2016-Jan-31 22:32N 51°20' E 002°33'0 0.0
2016-Jan-31 21:32N 51°20' E 002°33'0 0.0
2016-Jan-31 20:32N 51°20' E 002°33'0 0.0
2016-Jan-31 19:26N 51°20' E 002°33'0 0.0
2016-Jan-31 18:23N 51°20' E 002°33'0 0.0
2016-Jan-31 17:32N 51°20' E 002°33'0 0.0
2016-Jan-31 16:32N 51°20' E 002°33'0 0.0
2016-Jan-31 15:32N 51°20' E 002°33'0 0.0
2016-Jan-31 14:32N 51°20' E 002°33'0 0.1
2016-Jan-31 13:32N 51°20' E 002°32'0 0.0
2016-Jan-31 12:20N 51°20' E 002°32'0 0.0
2016-Jan-31 11:26N 51°20' E 002°32'0 0.1
2016-Jan-31 10:32N 51°20' E 002°32'0 0.1
2016-Jan-31 09:26N 51°20' E 002°32'0 0.0
2016-Jan-31 08:23N 51°20' E 002°33'0 0.0
2016-Jan-31 07:32N 51°20' E 002°33'0 0.0
2016-Jan-31 06:32N 51°20' E 002°33'0 0.0
2016-Jan-31 05:32N 51°20' E 002°33'0 0.0
2016-Jan-31 04:26N 51°20' E 002°33'0 0.0
2016-Jan-31 03:20N 51°20' E 002°33'0 0.0
2016-Jan-31 02:26N 51°20' E 002°33'0 0.1
2016-Jan-31 01:26N 51°20' E 002°32'0 0.1
2016-Jan-31 00:32N 51°20' E 002°32'0 0.1
2016-Jan-30 23:20N 51°20' E 002°32'0 0.1
2016-Jan-30 22:23N 51°20' E 002°33'0 0.1
2016-Jan-30 21:29N 51°20' E 002°33'0 0.1
2016-Jan-30 20:30N 51°20' E 002°32'8 8.4
2016-Jan-30 19:33N 51°19' E 002°20'1514.7
2016-Jan-30 18:33N 51°12' E 001°59'1515.1
2016-Jan-30 17:33N 51°03' E 001°40'  
2016-Jan-28 05:33N 41°60' W 009°56'1413.7
2016-Jan-28 04:33N 41°46' W 009°56'1712.9
2016-Jan-28 03:12N 41°29' W 009°55'913.1
2016-Jan-28 02:30N 41°20' W 009°56'1212.9
2016-Jan-28 01:33N 41°07' W 009°56'1312.5
2016-Jan-28 00:33N 40°55' W 009°57'1414.3
2016-Jan-27 23:33N 40°40' W 009°56'1413.4
2016-Jan-27 22:30N 40°26' W 009°56'2613.3
2016-Jan-27 20:33N 40°01' W 009°56'1413.1
2016-Jan-27 19:30N 39°47' W 009°56'1313.2
2016-Jan-27 18:33N 39°34' W 009°56'1414.1
2016-Jan-27 17:33N 39°20' W 009°56'1312.8
2016-Jan-27 16:33N 39°07' W 009°56'1414.0
2016-Jan-27 15:33N 38°53' W 009°56'1413.8
2016-Jan-27 14:33N 38°40' W 009°55'1212.3
2016-Jan-27 13:33N 38°30' W 009°46'1313.0
2016-Jan-27 12:33N 38°22' W 009°32'1313.1
2016-Jan-27 11:33N 38°14' W 009°19'1312.9
2016-Jan-27 10:33N 38°06' W 009°06'1313.1
2016-Jan-27 09:33N 37°56' W 008°55'1 1.4
2016-Jan-27 08:31N 37°57' W 008°53'0 0.0
2016-Jan-27 07:31N 37°57' W 008°53'0 0.0
2016-Jan-27 06:31N 37°57' W 008°53'0 0.0
2016-Jan-27 05:31N 37°57' W 008°53'0 0.0
2016-Jan-27 04:31N 37°57' W 008°53'0 0.0
2016-Jan-27 03:31N 37°57' W 008°53'0 0.0
2016-Jan-27 02:31N 37°57' W 008°53'0 0.0
2016-Jan-27 01:31N 37°57' W 008°53'0 0.0
2016-Jan-27 00:31N 37°57' W 008°53'0 0.0
2016-Jan-26 23:31N 37°57' W 008°53'0 0.0
2016-Jan-26 22:31N 37°57' W 008°53'0 0.0
2016-Jan-26 21:31N 37°57' W 008°53'0 0.0
2016-Jan-26 20:31N 37°57' W 008°53'0 0.0
2016-Jan-26 19:31N 37°57' W 008°53'0 0.0
2016-Jan-26 18:31N 37°57' W 008°53'0 0.0
2016-Jan-26 17:31N 37°57' W 008°53'0 0.0
2016-Jan-26 16:31N 37°57' W 008°53'0 0.0
2016-Jan-26 15:31N 37°57' W 008°53'0 0.0
2016-Jan-26 14:31N 37°57' W 008°53'0 0.0
2016-Jan-26 13:31N 37°57' W 008°53'0 0.0
2016-Jan-26 12:31N 37°57' W 008°53'0 0.0
2016-Jan-26 11:31N 37°57' W 008°53'0 0.0
2016-Jan-26 10:33N 37°57' W 008°53'2 2.2
2016-Jan-26 09:33N 37°55' W 008°52'0 0.0
2016-Jan-26 08:33N 37°55' W 008°52'0 0.0
2016-Jan-26 07:33N 37°55' W 008°52'0 0.0
2016-Jan-26 06:33N 37°55' W 008°52'0 0.0
2016-Jan-26 05:33N 37°55' W 008°52'0 0.0
2016-Jan-26 04:33N 37°55' W 008°52'0 0.4
2016-Jan-26 03:33N 37°55' W 008°52'1111.2
2016-Jan-26 02:33N 38°03' W 009°02'1414.1
2016-Jan-26 01:33N 38°09' W 009°18'1414.1
2016-Jan-26 00:33N 38°16' W 009°34'1514.7
2016-Jan-25 23:32N 38°22' W 009°52'1414.5
2016-Jan-25 22:32N 38°29' W 010°08'1413.2
2016-Jan-25 21:29N 38°43' W 010°12'1313.1
2016-Jan-25 20:29N 38°56' W 010°12'1313.8
2016-Jan-25 19:32N 39°08' W 010°04'1414.1
2016-Jan-25 18:32N 39°20' W 009°57'1413.9
2016-Jan-25 17:32N 39°33' W 009°49'1413.5
2016-Jan-25 16:32N 39°44' W 009°40'1211.8
2016-Jan-25 15:32N 39°54' W 009°30'  

Dump ship's entire track history